Zephyr — WDG9976 — position and weather

sailwx.info

Track history (hours):
 
Tides and Currents Weather Stations Pressure Air Temp Water Temp Dewpoint Dewpoint Depression Visibility Wind Speed Wind Dir Waves Ship Positions

Zephyr

Owner: Micjan, Ron, Portland, OR. More information available from US FCC via Universal Licensing System and Coast Guard Vessel Documentation Center.

Last reported at 2017-Oct-13 15:27 UTC. Time now 2017-Oct-23 06:04 UTC.
Position N 46°12' W 123°46'.
Warning: this ship's position is 9 days out of date.

Length 25 m; draft 2.5 m.

Type: Ship. MMSI: 338142000.

Date/timePositionNaut miles runAvg speedWind from/ knotsBaromVisibWave heightAir tempDewpointWater temp
2017-Oct-13 15:27N 46°12' W 123°46'1 1.4
2017-Oct-13 15:01N 46°12' W 123°45'0 0.1
2017-Oct-13 14:29N 46°12' W 123°45'0 0.0
2017-Oct-13 13:50N 46°12' W 123°45'0 0.0
2017-Oct-13 13:29N 46°12' W 123°45'0 0.0
2017-Oct-13 12:44N 46°12' W 123°45'0 0.0
2017-Oct-13 12:29N 46°12' W 123°45'0 0.0
2017-Oct-13 11:56N 46°12' W 123°45'0 0.0
2017-Oct-13 11:29N 46°12' W 123°45'0 0.0
2017-Oct-13 10:59N 46°12' W 123°45'0 0.0
2017-Oct-13 10:29N 46°12' W 123°45'0 0.1
2017-Oct-13 09:59N 46°12' W 123°45'0 0.0
2017-Oct-13 09:14N 46°12' W 123°45'0 0.0
2017-Oct-13 08:59N 46°12' W 123°45'0 0.0
2017-Oct-13 08:14N 46°12' W 123°45'0 0.0
2017-Oct-13 07:50N 46°12' W 123°45'0 0.0
2017-Oct-13 07:29N 46°12' W 123°45'0 0.0
2017-Oct-13 06:59N 46°12' W 123°45'0 0.0
2017-Oct-13 06:29N 46°12' W 123°45'0 0.0
2017-Oct-13 05:53N 46°12' W 123°45'0 0.0
2017-Oct-13 05:29N 46°12' W 123°45'0 0.0
2017-Oct-13 04:59N 46°12' W 123°45'0 0.0
2017-Oct-13 04:30N 46°12' W 123°45'2 3.9
2017-Oct-13 04:01N 46°12' W 123°47'5 9.8
2017-Oct-13 03:31N 46°11' W 123°54'5 9.5
2017-Oct-13 03:00N 46°14' W 123°59'6 9.4
2017-Oct-13 02:21N 46°15' W 124°08'310.0
2017-Oct-13 02:01N 46°18' W 124°11'510.6
2017-Oct-13 01:30N 46°23' W 124°13'510.2
2017-Oct-13 01:01N 46°28' W 124°15'510.3
2017-Oct-13 00:30N 46°33' W 124°16'5 9.3
2017-Oct-13 00:00N 46°38' W 124°18'510.7
2017-Oct-12 23:31N 46°43' W 124°20'510.4
2017-Oct-12 23:00N 46°48' W 124°21'510.5
2017-Oct-12 22:30N 46°53' W 124°23'510.5
2017-Oct-12 22:01N 46°58' W 124°25'81 9.7
2017-Oct-12 13:38N 48°17' W 124°54'4 8.9
2017-Oct-12 13:13N 48°20' W 124°50'2 8.7
2017-Oct-12 13:00N 48°21' W 124°49'4 8.4
2017-Oct-12 12:30N 48°24' W 124°44'4 8.5
2017-Oct-12 12:00N 48°24' W 124°37'1 2.9
2017-Oct-12 11:30N 48°22' W 124°37'0 0.0
2017-Oct-12 10:59N 48°22' W 124°37'0 0.0
2017-Oct-12 10:29N 48°22' W 124°37'0 0.0
2017-Oct-12 09:59N 48°22' W 124°37'0 0.0
2017-Oct-12 09:29N 48°22' W 124°37'0 0.0
2017-Oct-12 08:59N 48°22' W 124°37'0 0.0
2017-Oct-12 08:29N 48°22' W 124°37'0 0.0
2017-Oct-12 07:59N 48°22' W 124°37'0 0.0
2017-Oct-12 07:29N 48°22' W 124°37'0 0.0
2017-Oct-12 06:59N 48°22' W 124°37'0 0.0
2017-Oct-12 06:29N 48°22' W 124°37'0 0.0
2017-Oct-12 05:59N 48°22' W 124°37'0 0.0
2017-Oct-12 05:29N 48°22' W 124°37'0 0.0
2017-Oct-12 04:59N 48°22' W 124°37'0 0.0
2017-Oct-12 04:29N 48°22' W 124°37'0 0.0
2017-Oct-12 03:59N 48°22' W 124°37'0 0.0
2017-Oct-12 03:29N 48°22' W 124°37'0 0.0
2017-Oct-12 02:59N 48°22' W 124°37'0 0.0
2017-Oct-12 02:29N 48°22' W 124°37'0 0.0
2017-Oct-12 01:59N 48°22' W 124°37'0 0.0
2017-Oct-12 01:29N 48°22' W 124°37'0 0.0
2017-Oct-12 00:59N 48°22' W 124°37'0 0.0
2017-Oct-12 00:26N 48°22' W 124°37'2 4.1
2017-Oct-12 00:00N 48°23' W 124°35'510.1
2017-Oct-11 23:30N 48°21' W 124°27'510.9
2017-Oct-11 23:00N 48°20' W 124°20'3710.5
2017-Oct-11 19:32N 48°11' W 123°26'210.5
2017-Oct-11 19:21N 48°11' W 123°23'410.5
2017-Oct-11 18:56N 48°11' W 123°17'510.9
2017-Oct-11 18:29N 48°11' W 123°10'  
2017-Oct-08 18:49N 48°22' W 122°55'3 9.8
2017-Oct-08 18:30N 48°25' W 122°56'611.7
2017-Oct-08 18:00N 48°31' W 122°58'3 5.8
2017-Oct-08 17:30N 48°33' W 123°00'3 5.5
2017-Oct-08 17:00N 48°35' W 122°60'1 2.3
2017-Oct-08 16:26N 48°37' W 122°59'0 0.1
2017-Oct-08 15:59N 48°37' W 122°59'0 0.0
2017-Oct-08 15:05N 48°37' W 122°59'0 0.0
2017-Oct-08 14:55N 48°37' W 122°59'0 0.0
2017-Oct-08 14:28N 48°37' W 122°59'0 0.0
2017-Oct-08 13:58N 48°37' W 122°59'0 0.0
2017-Oct-08 13:10N 48°37' W 122°59'0 0.0
2017-Oct-08 12:58N 48°37' W 122°59'0 0.0
2017-Oct-08 12:23N 48°37' W 122°59'0 0.0
2017-Oct-08 11:55N 48°37' W 122°59'0 0.0
2017-Oct-08 11:25N 48°37' W 122°59'0 0.0
2017-Oct-08 10:58N 48°37' W 122°59'0 0.0
2017-Oct-08 09:40N 48°37' W 122°59'0 0.0
2017-Oct-08 09:25N 48°37' W 122°59'0 0.0
2017-Oct-08 08:58N 48°37' W 122°59'0 0.0
2017-Oct-08 07:41N 48°37' W 122°59'0 0.0
2017-Oct-08 07:28N 48°37' W 122°59'0 0.0
2017-Oct-08 06:37N 48°37' W 122°59'0 0.0
2017-Oct-08 06:22N 48°37' W 122°59'0 0.0
2017-Oct-08 05:52N 48°37' W 122°59'0 0.0
2017-Oct-08 05:28N 48°37' W 122°59'0 0.0
2017-Oct-08 04:52N 48°37' W 122°59'0 0.0
2017-Oct-08 04:07N 48°37' W 122°59'0 0.1
2017-Oct-08 03:31N 48°37' W 122°59'0 0.0
2017-Oct-08 03:28N 48°37' W 122°59'0 0.1
2017-Oct-08 02:58N 48°37' W 122°59'0 0.0
2017-Oct-08 02:28N 48°37' W 122°59'0 0.0
2017-Oct-08 01:55N 48°37' W 122°59'0 0.0
2017-Oct-08 01:28N 48°37' W 122°59'0 0.0
2017-Oct-08 00:58N 48°37' W 122°59'0 0.0
2017-Oct-08 00:29N 48°37' W 122°59'0 0.0
2017-Oct-07 23:55N 48°37' W 122°59'0 0.1
2017-Oct-07 23:19N 48°37' W 122°59'0 0.0
2017-Oct-07 22:58N 48°37' W 122°59'0 0.0
2017-Oct-07 22:22N 48°37' W 122°59'0 0.0
2017-Oct-07 21:55N 48°37' W 122°59'0 0.0
2017-Oct-07 21:28N 48°37' W 122°59'0 0.0
2017-Oct-07 20:58N 48°37' W 122°59'0 0.0
2017-Oct-07 20:28N 48°37' W 122°59'0 0.0
2017-Oct-07 19:58N 48°37' W 122°59'0 0.0
2017-Oct-07 19:25N 48°37' W 122°59'0 0.0
2017-Oct-07 18:58N 48°37' W 122°59'0 0.0
2017-Oct-07 18:10N 48°37' W 122°59'0 0.0
2017-Oct-07 17:04N 48°37' W 122°59'0 0.0
2017-Oct-07 16:58N 48°37' W 122°59'0 0.0
2017-Oct-07 16:28N 48°37' W 122°59'0 0.0
2017-Oct-07 15:52N 48°37' W 122°59'0 0.0
2017-Oct-07 14:28N 48°37' W 122°59'0 0.0
2017-Oct-07 13:58N 48°37' W 122°59'0 0.0
2017-Oct-07 13:22N 48°37' W 122°59'0 0.0
2017-Oct-07 12:58N 48°37' W 122°59'0 0.0
2017-Oct-07 12:04N 48°37' W 122°59'0 0.0
2017-Oct-07 11:58N 48°37' W 122°59'0 0.0
2017-Oct-07 11:22N 48°37' W 122°59'0 0.0
2017-Oct-07 10:43N 48°37' W 122°59'0 0.0
2017-Oct-07 10:25N 48°37' W 122°59'0 0.0
2017-Oct-07 09:52N 48°37' W 122°59'0 0.0
2017-Oct-07 09:22N 48°37' W 122°59'0 0.0
2017-Oct-07 08:55N 48°37' W 122°59'0 0.0
2017-Oct-07 08:28N 48°37' W 122°59'0 0.0
2017-Oct-07 07:40N 48°37' W 122°59'0 0.0
2017-Oct-07 07:28N 48°37' W 122°59'0 0.0
2017-Oct-07 06:58N 48°37' W 122°59'0 0.0
2017-Oct-07 06:13N 48°37' W 122°59'0 0.0
2017-Oct-07 05:49N 48°37' W 122°59'0 0.0
2017-Oct-07 05:19N 48°37' W 122°59'0 0.1
2017-Oct-07 04:58N 48°37' W 122°59'0 0.0
2017-Oct-07 04:28N 48°37' W 122°59'0 0.0
2017-Oct-07 02:58N 48°37' W 122°59'0 0.0
2017-Oct-07 01:43N 48°37' W 122°59'0 0.0
2017-Oct-07 01:22N 48°37' W 122°59'0 0.1
2017-Oct-07 00:43N 48°37' W 122°59'0 0.0
2017-Oct-07 00:28N 48°37' W 122°59'0 0.1
2017-Oct-06 23:49N 48°37' W 122°59'0 0.0
2017-Oct-06 23:28N 48°37' W 122°59'0 0.1
2017-Oct-06 22:52N 48°37' W 122°59'0 0.0
2017-Oct-06 22:10N 48°37' W 122°59'0 0.0
2017-Oct-06 21:58N 48°37' W 122°59'0 0.0
2017-Oct-06 21:28N 48°37' W 122°59'0 0.0
2017-Oct-06 20:58N 48°37' W 122°59'0 0.1
2017-Oct-06 20:19N 48°37' W 122°59'0 0.0
2017-Oct-06 19:58N 48°37' W 122°59'0 0.0
2017-Oct-06 19:01N 48°37' W 122°59'0 0.0
2017-Oct-06 18:10N 48°37' W 122°59'0 0.2
2017-Oct-06 17:55N 48°37' W 122°59'0 0.0
2017-Oct-06 16:28N 48°37' W 122°59'0 0.0
2017-Oct-06 15:52N 48°37' W 122°59'0 0.0
2017-Oct-06 15:22N 48°37' W 122°59'0 0.0
2017-Oct-06 14:55N 48°37' W 122°59'0 0.0
2017-Oct-06 14:22N 48°37' W 122°59'0 0.0
2017-Oct-06 13:43N 48°37' W 122°59'0 0.0
2017-Oct-06 13:28N 48°37' W 122°59'0 0.0
2017-Oct-06 12:58N 48°37' W 122°59'0 0.1
2017-Oct-06 12:22N 48°37' W 122°59'0 0.1
2017-Oct-06 11:55N 48°37' W 122°59'0 0.0
2017-Oct-06 11:01N 48°37' W 122°59'0 0.0
2017-Oct-06 10:52N 48°37' W 122°59'0 0.0
2017-Oct-06 10:25N 48°37' W 122°59'0 0.0
2017-Oct-06 09:58N 48°37' W 122°59'0 0.1
2017-Oct-06 09:25N 48°37' W 122°59'0 0.0
2017-Oct-06 08:58N 48°37' W 122°59'0 0.0
2017-Oct-06 08:13N 48°37' W 122°59'0 0.0
2017-Oct-06 07:49N 48°37' W 122°59'0 0.0
2017-Oct-06 06:40N 48°37' W 122°59'0 0.0
2017-Oct-06 06:25N 48°37' W 122°59'0 0.0
2017-Oct-06 05:40N 48°37' W 122°59'0 0.0
2017-Oct-06 05:22N 48°37' W 122°59'0 0.0
2017-Oct-06 04:55N 48°37' W 122°59'0 0.0
2017-Oct-06 04:25N 48°37' W 122°59'0 0.0
2017-Oct-06 03:55N 48°37' W 122°59'0 0.0
2017-Oct-06 03:22N 48°37' W 122°59'0 0.1
2017-Oct-06 02:58N 48°37' W 122°59'0 0.1
2017-Oct-06 02:28N 48°37' W 122°59'0 0.0
2017-Oct-06 01:19N 48°37' W 122°59'0 0.0
2017-Oct-06 00:52N 48°37' W 122°59'0 0.0
2017-Oct-06 00:28N 48°37' W 122°59'0 0.0
2017-Oct-05 23:52N 48°37' W 122°59'0 0.0
2017-Oct-05 23:28N 48°37' W 122°59'2 5.0
2017-Oct-05 23:00N 48°35' W 122°56'5 9.5
2017-Oct-05 22:31N 48°35' W 122°49'4 8.1
2017-Oct-05 22:00N 48°39' W 122°45'4 7.7
2017-Oct-05 21:30N 48°42' W 122°48'5 1.3
2017-Oct-05 17:23N 48°46' W 122°54'0 0.0
2017-Oct-05 12:29N 48°46' W 122°54'0 0.0
2017-Oct-05 10:17N 48°46' W 122°54'0 0.0
2017-Oct-05 09:56N 48°46' W 122°54'0 0.0
2017-Oct-05 09:29N 48°46' W 122°54'0 0.0
2017-Oct-05 08:11N 48°46' W 122°54'0 0.0
2017-Oct-05 07:50N 48°46' W 122°54'0 0.0
2017-Oct-04 21:20N 48°46' W 122°54'0 0.0
2017-Oct-04 20:53N 48°46' W 122°54'0 0.0
2017-Oct-04 20:14N 48°46' W 122°54'0 0.0
2017-Oct-04 19:59N 48°46' W 122°54'2 4.0
2017-Oct-04 19:26N 48°44' W 122°55'4 9.2
2017-Oct-04 19:00N 48°41' W 122°59'5 9.4
2017-Oct-04 18:30N 48°36' W 123°02'3 6.6
2017-Oct-04 18:00N 48°34' W 122°59'0 0.7
2017-Oct-04 17:26N 48°34' W 122°59'0 0.0
2017-Oct-04 16:59N 48°34' W 122°59'0 0.0
2017-Oct-04 16:23N 48°34' W 122°59'0 0.0
2017-Oct-04 15:53N 48°34' W 122°59'0 0.0
2017-Oct-04 15:29N 48°34' W 122°59'0 0.0
2017-Oct-04 14:53N 48°34' W 122°59'0 0.0
2017-Oct-04 14:29N 48°34' W 122°59'0 0.0
2017-Oct-04 13:59N 48°34' W 122°59'0 0.1
2017-Oct-04 13:29N 48°34' W 122°59'0 0.0
2017-Oct-04 12:59N 48°34' W 122°59'0 0.0
2017-Oct-04 12:29N 48°34' W 122°59'0 0.0
2017-Oct-04 11:59N 48°34' W 122°59'0 0.0
2017-Oct-04 11:29N 48°34' W 122°59'0 0.0
2017-Oct-04 10:59N 48°34' W 122°59'0 0.0
2017-Oct-04 10:29N 48°34' W 122°59'0 0.0
2017-Oct-04 09:53N 48°34' W 122°59'0 0.1
2017-Oct-04 09:29N 48°34' W 122°59'0 0.0
2017-Oct-04 08:59N 48°34' W 122°59'0 0.1
2017-Oct-04 08:29N 48°34' W 122°59'0 0.0
2017-Oct-04 07:56N 48°34' W 122°59'0 0.0
2017-Oct-04 07:29N 48°34' W 122°59'0 0.0
2017-Oct-04 06:59N 48°34' W 122°59'0 0.0
2017-Oct-04 06:26N 48°34' W 122°59'0 0.0
2017-Oct-04 05:59N 48°34' W 122°59'0 0.0
2017-Oct-04 05:29N 48°34' W 122°59'0 0.0
2017-Oct-04 04:56N 48°34' W 122°59'0 0.0
2017-Oct-04 04:29N 48°34' W 122°59'0 0.1
2017-Oct-04 03:56N 48°34' W 122°59'0 0.0
2017-Oct-04 03:29N 48°34' W 122°59'0 0.0
2017-Oct-04 02:59N 48°34' W 122°59'0 0.0
2017-Oct-04 02:26N 48°34' W 122°59'0 0.1
2017-Oct-04 01:56N 48°34' W 122°59'0 0.1
2017-Oct-04 01:26N 48°34' W 122°59'0 0.0
2017-Oct-04 00:56N 48°34' W 122°59'0 0.0
2017-Oct-04 00:23N 48°34' W 122°59'0 0.0
2017-Oct-03 23:59N 48°34' W 122°59'0 0.0
2017-Oct-03 23:29N 48°34' W 122°59'0 0.0
2017-Oct-03 22:56N 48°34' W 122°59'0 0.0
2017-Oct-03 22:26N 48°34' W 122°59'0 0.0
2017-Oct-03 21:56N 48°34' W 122°59'0 0.0
2017-Oct-03 21:29N 48°34' W 122°59'1 2.5
2017-Oct-03 21:01N 48°34' W 123°00'2 3.4
2017-Oct-03 20:30N 48°36' W 122°59'1 2.9
2017-Oct-03 20:00N 48°36' W 123°01'3 6.0
2017-Oct-03 19:26N 48°38' W 123°06'3 7.1
2017-Oct-03 19:00N 48°39' W 123°10'1 1.9
2017-Oct-03 18:29N 48°40' W 123°10'0 0.0
2017-Oct-03 17:59N 48°40' W 123°10'0 0.0
2017-Oct-03 17:29N 48°40' W 123°10'0 0.0
2017-Oct-03 16:56N 48°40' W 123°10'0 0.0
2017-Oct-03 16:20N 48°40' W 123°10'0 0.0
2017-Oct-03 15:50N 48°40' W 123°10'  
Track history (hours):
 
Tides and Currents Weather Stations Pressure Air Temp Water Temp Dewpoint Dewpoint Depression Visibility Wind Speed Wind Dir Waves Ship Positions

Zephyr

Owner: Micjan, Ron, Portland, OR. More information available from US FCC via Universal Licensing System and Coast Guard Vessel Documentation Center.

Last reported at 2017-Oct-13 15:27 UTC. Time now 2017-Oct-23 06:04 UTC.
Position N 46°12' W 123°46'.
Warning: this ship's position is 9 days out of date.

Length 25 m; draft 2.5 m.

Type: Ship. MMSI: 338142000.

Date/timePositionNaut miles runAvg speedWind from/ knotsBaromVisibWave heightAir tempDewpointWater temp
2017-Oct-13 15:27N 46°12' W 123°46'1 1.4
2017-Oct-13 15:01N 46°12' W 123°45'0 0.1
2017-Oct-13 14:29N 46°12' W 123°45'0 0.0
2017-Oct-13 13:50N 46°12' W 123°45'0 0.0
2017-Oct-13 13:29N 46°12' W 123°45'0 0.0
2017-Oct-13 12:44N 46°12' W 123°45'0 0.0
2017-Oct-13 12:29N 46°12' W 123°45'0 0.0
2017-Oct-13 11:56N 46°12' W 123°45'0 0.0
2017-Oct-13 11:29N 46°12' W 123°45'0 0.0
2017-Oct-13 10:59N 46°12' W 123°45'0 0.0
2017-Oct-13 10:29N 46°12' W 123°45'0 0.1
2017-Oct-13 09:59N 46°12' W 123°45'0 0.0
2017-Oct-13 09:14N 46°12' W 123°45'0 0.0
2017-Oct-13 08:59N 46°12' W 123°45'0 0.0
2017-Oct-13 08:14N 46°12' W 123°45'0 0.0
2017-Oct-13 07:50N 46°12' W 123°45'0 0.0
2017-Oct-13 07:29N 46°12' W 123°45'0 0.0
2017-Oct-13 06:59N 46°12' W 123°45'0 0.0
2017-Oct-13 06:29N 46°12' W 123°45'0 0.0
2017-Oct-13 05:53N 46°12' W 123°45'0 0.0
2017-Oct-13 05:29N 46°12' W 123°45'0 0.0
2017-Oct-13 04:59N 46°12' W 123°45'0 0.0
2017-Oct-13 04:30N 46°12' W 123°45'2 3.9
2017-Oct-13 04:01N 46°12' W 123°47'5 9.8
2017-Oct-13 03:31N 46°11' W 123°54'5 9.5
2017-Oct-13 03:00N 46°14' W 123°59'6 9.4
2017-Oct-13 02:21N 46°15' W 124°08'310.0
2017-Oct-13 02:01N 46°18' W 124°11'510.6
2017-Oct-13 01:30N 46°23' W 124°13'510.2
2017-Oct-13 01:01N 46°28' W 124°15'510.3
2017-Oct-13 00:30N 46°33' W 124°16'5 9.3
2017-Oct-13 00:00N 46°38' W 124°18'510.7
2017-Oct-12 23:31N 46°43' W 124°20'510.4
2017-Oct-12 23:00N 46°48' W 124°21'510.5
2017-Oct-12 22:30N 46°53' W 124°23'510.5
2017-Oct-12 22:01N 46°58' W 124°25'81 9.7
2017-Oct-12 13:38N 48°17' W 124°54'4 8.9
2017-Oct-12 13:13N 48°20' W 124°50'2 8.7
2017-Oct-12 13:00N 48°21' W 124°49'4 8.4
2017-Oct-12 12:30N 48°24' W 124°44'4 8.5
2017-Oct-12 12:00N 48°24' W 124°37'1 2.9
2017-Oct-12 11:30N 48°22' W 124°37'0 0.0
2017-Oct-12 10:59N 48°22' W 124°37'0 0.0
2017-Oct-12 10:29N 48°22' W 124°37'0 0.0
2017-Oct-12 09:59N 48°22' W 124°37'0 0.0
2017-Oct-12 09:29N 48°22' W 124°37'0 0.0
2017-Oct-12 08:59N 48°22' W 124°37'0 0.0
2017-Oct-12 08:29N 48°22' W 124°37'0 0.0
2017-Oct-12 07:59N 48°22' W 124°37'0 0.0
2017-Oct-12 07:29N 48°22' W 124°37'0 0.0
2017-Oct-12 06:59N 48°22' W 124°37'0 0.0
2017-Oct-12 06:29N 48°22' W 124°37'0 0.0
2017-Oct-12 05:59N 48°22' W 124°37'0 0.0
2017-Oct-12 05:29N 48°22' W 124°37'0 0.0
2017-Oct-12 04:59N 48°22' W 124°37'0 0.0
2017-Oct-12 04:29N 48°22' W 124°37'0 0.0
2017-Oct-12 03:59N 48°22' W 124°37'0 0.0
2017-Oct-12 03:29N 48°22' W 124°37'0 0.0
2017-Oct-12 02:59N 48°22' W 124°37'0 0.0
2017-Oct-12 02:29N 48°22' W 124°37'0 0.0
2017-Oct-12 01:59N 48°22' W 124°37'0 0.0
2017-Oct-12 01:29N 48°22' W 124°37'0 0.0
2017-Oct-12 00:59N 48°22' W 124°37'0 0.0
2017-Oct-12 00:26N 48°22' W 124°37'2 4.1
2017-Oct-12 00:00N 48°23' W 124°35'510.1
2017-Oct-11 23:30N 48°21' W 124°27'510.9
2017-Oct-11 23:00N 48°20' W 124°20'3710.5
2017-Oct-11 19:32N 48°11' W 123°26'210.5
2017-Oct-11 19:21N 48°11' W 123°23'410.5
2017-Oct-11 18:56N 48°11' W 123°17'510.9
2017-Oct-11 18:29N 48°11' W 123°10'  
2017-Oct-08 18:49N 48°22' W 122°55'3 9.8
2017-Oct-08 18:30N 48°25' W 122°56'611.7
2017-Oct-08 18:00N 48°31' W 122°58'3 5.8
2017-Oct-08 17:30N 48°33' W 123°00'3 5.5
2017-Oct-08 17:00N 48°35' W 122°60'1 2.3
2017-Oct-08 16:26N 48°37' W 122°59'0 0.1
2017-Oct-08 15:59N 48°37' W 122°59'0 0.0
2017-Oct-08 15:05N 48°37' W 122°59'0 0.0
2017-Oct-08 14:55N 48°37' W 122°59'0 0.0
2017-Oct-08 14:28N 48°37' W 122°59'0 0.0
2017-Oct-08 13:58N 48°37' W 122°59'0 0.0
2017-Oct-08 13:10N 48°37' W 122°59'0 0.0
2017-Oct-08 12:58N 48°37' W 122°59'0 0.0
2017-Oct-08 12:23N 48°37' W 122°59'0 0.0
2017-Oct-08 11:55N 48°37' W 122°59'0 0.0
2017-Oct-08 11:25N 48°37' W 122°59'0 0.0
2017-Oct-08 10:58N 48°37' W 122°59'0 0.0
2017-Oct-08 09:40N 48°37' W 122°59'0 0.0
2017-Oct-08 09:25N 48°37' W 122°59'0 0.0
2017-Oct-08 08:58N 48°37' W 122°59'0 0.0
2017-Oct-08 07:41N 48°37' W 122°59'0 0.0
2017-Oct-08 07:28N 48°37' W 122°59'0 0.0
2017-Oct-08 06:37N 48°37' W 122°59'0 0.0
2017-Oct-08 06:22N 48°37' W 122°59'0 0.0
2017-Oct-08 05:52N 48°37' W 122°59'0 0.0
2017-Oct-08 05:28N 48°37' W 122°59'0 0.0
2017-Oct-08 04:52N 48°37' W 122°59'0 0.0
2017-Oct-08 04:07N 48°37' W 122°59'0 0.1
2017-Oct-08 03:31N 48°37' W 122°59'0 0.0
2017-Oct-08 03:28N 48°37' W 122°59'0 0.1
2017-Oct-08 02:58N 48°37' W 122°59'0 0.0
2017-Oct-08 02:28N 48°37' W 122°59'0 0.0
2017-Oct-08 01:55N 48°37' W 122°59'0 0.0
2017-Oct-08 01:28N 48°37' W 122°59'0 0.0
2017-Oct-08 00:58N 48°37' W 122°59'0 0.0
2017-Oct-08 00:29N 48°37' W 122°59'0 0.0
2017-Oct-07 23:55N 48°37' W 122°59'0 0.1
2017-Oct-07 23:19N 48°37' W 122°59'0 0.0
2017-Oct-07 22:58N 48°37' W 122°59'0 0.0
2017-Oct-07 22:22N 48°37' W 122°59'0 0.0
2017-Oct-07 21:55N 48°37' W 122°59'0 0.0
2017-Oct-07 21:28N 48°37' W 122°59'0 0.0
2017-Oct-07 20:58N 48°37' W 122°59'0 0.0
2017-Oct-07 20:28N 48°37' W 122°59'0 0.0
2017-Oct-07 19:58N 48°37' W 122°59'0 0.0
2017-Oct-07 19:25N 48°37' W 122°59'0 0.0
2017-Oct-07 18:58N 48°37' W 122°59'0 0.0
2017-Oct-07 18:10N 48°37' W 122°59'0 0.0
2017-Oct-07 17:04N 48°37' W 122°59'0 0.0
2017-Oct-07 16:58N 48°37' W 122°59'0 0.0
2017-Oct-07 16:28N 48°37' W 122°59'0 0.0
2017-Oct-07 15:52N 48°37' W 122°59'0 0.0
2017-Oct-07 14:28N 48°37' W 122°59'0 0.0
2017-Oct-07 13:58N 48°37' W 122°59'0 0.0
2017-Oct-07 13:22N 48°37' W 122°59'0 0.0
2017-Oct-07 12:58N 48°37' W 122°59'0 0.0
2017-Oct-07 12:04N 48°37' W 122°59'0 0.0
2017-Oct-07 11:58N 48°37' W 122°59'0 0.0
2017-Oct-07 11:22N 48°37' W 122°59'0 0.0
2017-Oct-07 10:43N 48°37' W 122°59'0 0.0
2017-Oct-07 10:25N 48°37' W 122°59'0 0.0
2017-Oct-07 09:52N 48°37' W 122°59'0 0.0
2017-Oct-07 09:22N 48°37' W 122°59'0 0.0
2017-Oct-07 08:55N 48°37' W 122°59'0 0.0
2017-Oct-07 08:28N 48°37' W 122°59'0 0.0
2017-Oct-07 07:40N 48°37' W 122°59'0 0.0
2017-Oct-07 07:28N 48°37' W 122°59'0 0.0
2017-Oct-07 06:58N 48°37' W 122°59'0 0.0
2017-Oct-07 06:13N 48°37' W 122°59'0 0.0
2017-Oct-07 05:49N 48°37' W 122°59'0 0.0
2017-Oct-07 05:19N 48°37' W 122°59'0 0.1
2017-Oct-07 04:58N 48°37' W 122°59'0 0.0
2017-Oct-07 04:28N 48°37' W 122°59'0 0.0
2017-Oct-07 02:58N 48°37' W 122°59'0 0.0
2017-Oct-07 01:43N 48°37' W 122°59'0 0.0
2017-Oct-07 01:22N 48°37' W 122°59'0 0.1
2017-Oct-07 00:43N 48°37' W 122°59'0 0.0
2017-Oct-07 00:28N 48°37' W 122°59'0 0.1
2017-Oct-06 23:49N 48°37' W 122°59'0 0.0
2017-Oct-06 23:28N 48°37' W 122°59'0 0.1
2017-Oct-06 22:52N 48°37' W 122°59'0 0.0
2017-Oct-06 22:10N 48°37' W 122°59'0 0.0
2017-Oct-06 21:58N 48°37' W 122°59'0 0.0
2017-Oct-06 21:28N 48°37' W 122°59'0 0.0
2017-Oct-06 20:58N 48°37' W 122°59'0 0.1
2017-Oct-06 20:19N 48°37' W 122°59'0 0.0
2017-Oct-06 19:58N 48°37' W 122°59'0 0.0
2017-Oct-06 19:01N 48°37' W 122°59'0 0.0
2017-Oct-06 18:10N 48°37' W 122°59'0 0.2
2017-Oct-06 17:55N 48°37' W 122°59'0 0.0
2017-Oct-06 16:28N 48°37' W 122°59'0 0.0
2017-Oct-06 15:52N 48°37' W 122°59'0 0.0
2017-Oct-06 15:22N 48°37' W 122°59'0 0.0
2017-Oct-06 14:55N 48°37' W 122°59'0 0.0
2017-Oct-06 14:22N 48°37' W 122°59'0 0.0
2017-Oct-06 13:43N 48°37' W 122°59'0 0.0
2017-Oct-06 13:28N 48°37' W 122°59'0 0.0
2017-Oct-06 12:58N 48°37' W 122°59'0 0.1
2017-Oct-06 12:22N 48°37' W 122°59'0 0.1
2017-Oct-06 11:55N 48°37' W 122°59'0 0.0
2017-Oct-06 11:01N 48°37' W 122°59'0 0.0
2017-Oct-06 10:52N 48°37' W 122°59'0 0.0
2017-Oct-06 10:25N 48°37' W 122°59'0 0.0
2017-Oct-06 09:58N 48°37' W 122°59'0 0.1
2017-Oct-06 09:25N 48°37' W 122°59'0 0.0
2017-Oct-06 08:58N 48°37' W 122°59'0 0.0
2017-Oct-06 08:13N 48°37' W 122°59'0 0.0
2017-Oct-06 07:49N 48°37' W 122°59'0 0.0
2017-Oct-06 06:40N 48°37' W 122°59'0 0.0
2017-Oct-06 06:25N 48°37' W 122°59'0 0.0
2017-Oct-06 05:40N 48°37' W 122°59'0 0.0
2017-Oct-06 05:22N 48°37' W 122°59'0 0.0
2017-Oct-06 04:55N 48°37' W 122°59'0 0.0
2017-Oct-06 04:25N 48°37' W 122°59'0 0.0
2017-Oct-06 03:55N 48°37' W 122°59'0 0.0
2017-Oct-06 03:22N 48°37' W 122°59'0 0.1
2017-Oct-06 02:58N 48°37' W 122°59'0 0.1
2017-Oct-06 02:28N 48°37' W 122°59'0 0.0
2017-Oct-06 01:19N 48°37' W 122°59'0 0.0
2017-Oct-06 00:52N 48°37' W 122°59'0 0.0
2017-Oct-06 00:28N 48°37' W 122°59'0 0.0
2017-Oct-05 23:52N 48°37' W 122°59'0 0.0
2017-Oct-05 23:28N 48°37' W 122°59'2 5.0
2017-Oct-05 23:00N 48°35' W 122°56'5 9.5
2017-Oct-05 22:31N 48°35' W 122°49'4 8.1
2017-Oct-05 22:00N 48°39' W 122°45'4 7.7
2017-Oct-05 21:30N 48°42' W 122°48'5 1.3
2017-Oct-05 17:23N 48°46' W 122°54'0 0.0
2017-Oct-05 12:29N 48°46' W 122°54'0 0.0
2017-Oct-05 10:17N 48°46' W 122°54'0 0.0
2017-Oct-05 09:56N 48°46' W 122°54'0 0.0
2017-Oct-05 09:29N 48°46' W 122°54'0 0.0
2017-Oct-05 08:11N 48°46' W 122°54'0 0.0
2017-Oct-05 07:50N 48°46' W 122°54'0 0.0
2017-Oct-04 21:20N 48°46' W 122°54'0 0.0
2017-Oct-04 20:53N 48°46' W 122°54'0 0.0
2017-Oct-04 20:14N 48°46' W 122°54'0 0.0
2017-Oct-04 19:59N 48°46' W 122°54'2 4.0
2017-Oct-04 19:26N 48°44' W 122°55'4 9.2
2017-Oct-04 19:00N 48°41' W 122°59'5 9.4
2017-Oct-04 18:30N 48°36' W 123°02'3 6.6
2017-Oct-04 18:00N 48°34' W 122°59'0 0.7
2017-Oct-04 17:26N 48°34' W 122°59'0 0.0
2017-Oct-04 16:59N 48°34' W 122°59'0 0.0
2017-Oct-04 16:23N 48°34' W 122°59'0 0.0
2017-Oct-04 15:53N 48°34' W 122°59'0 0.0
2017-Oct-04 15:29N 48°34' W 122°59'0 0.0
2017-Oct-04 14:53N 48°34' W 122°59'0 0.0
2017-Oct-04 14:29N 48°34' W 122°59'0 0.0
2017-Oct-04 13:59N 48°34' W 122°59'0 0.1
2017-Oct-04 13:29N 48°34' W 122°59'0 0.0
2017-Oct-04 12:59N 48°34' W 122°59'0 0.0
2017-Oct-04 12:29N 48°34' W 122°59'0 0.0
2017-Oct-04 11:59N 48°34' W 122°59'0 0.0
2017-Oct-04 11:29N 48°34' W 122°59'0 0.0
2017-Oct-04 10:59N 48°34' W 122°59'0 0.0
2017-Oct-04 10:29N 48°34' W 122°59'0 0.0
2017-Oct-04 09:53N 48°34' W 122°59'0 0.1
2017-Oct-04 09:29N 48°34' W 122°59'0 0.0
2017-Oct-04 08:59N 48°34' W 122°59'0 0.1
2017-Oct-04 08:29N 48°34' W 122°59'0 0.0
2017-Oct-04 07:56N 48°34' W 122°59'0 0.0
2017-Oct-04 07:29N 48°34' W 122°59'0 0.0
2017-Oct-04 06:59N 48°34' W 122°59'0 0.0
2017-Oct-04 06:26N 48°34' W 122°59'0 0.0
2017-Oct-04 05:59N 48°34' W 122°59'0 0.0
2017-Oct-04 05:29N 48°34' W 122°59'0 0.0
2017-Oct-04 04:56N 48°34' W 122°59'0 0.0
2017-Oct-04 04:29N 48°34' W 122°59'0 0.1
2017-Oct-04 03:56N 48°34' W 122°59'0 0.0
2017-Oct-04 03:29N 48°34' W 122°59'0 0.0
2017-Oct-04 02:59N 48°34' W 122°59'0 0.0
2017-Oct-04 02:26N 48°34' W 122°59'0 0.1
2017-Oct-04 01:56N 48°34' W 122°59'0 0.1
2017-Oct-04 01:26N 48°34' W 122°59'0 0.0
2017-Oct-04 00:56N 48°34' W 122°59'0 0.0
2017-Oct-04 00:23N 48°34' W 122°59'0 0.0
2017-Oct-03 23:59N 48°34' W 122°59'0 0.0
2017-Oct-03 23:29N 48°34' W 122°59'0 0.0
2017-Oct-03 22:56N 48°34' W 122°59'0 0.0
2017-Oct-03 22:26N 48°34' W 122°59'0 0.0
2017-Oct-03 21:56N 48°34' W 122°59'0 0.0
2017-Oct-03 21:29N 48°34' W 122°59'1 2.5
2017-Oct-03 21:01N 48°34' W 123°00'2 3.4
2017-Oct-03 20:30N 48°36' W 122°59'1 2.9
2017-Oct-03 20:00N 48°36' W 123°01'3 6.0
2017-Oct-03 19:26N 48°38' W 123°06'3 7.1
2017-Oct-03 19:00N 48°39' W 123°10'1 1.9
2017-Oct-03 18:29N 48°40' W 123°10'0 0.0
2017-Oct-03 17:59N 48°40' W 123°10'0 0.0
2017-Oct-03 17:29N 48°40' W 123°10'0 0.0
2017-Oct-03 16:56N 48°40' W 123°10'0 0.0
2017-Oct-03 16:20N 48°40' W 123°10'0 0.0
2017-Oct-03 15:50N 48°40' W 123°10'  

Dump ship's entire track history